^^

Metar (rayon 200 km actualisée toutes les 30 minutes)






LFBU - Brie/Champniers, France
Distance de la station: SSE 07km
Mise à jour: 22/12/2014 05:00
partiellement nuageux
partiellement nuageux
 Wind from SE
Vent: SE 4 km/h
Température: 1°C
Point de Rosée: 0°C
Humidité: 93%
Baromètre: 1033 hPa
Nuages: partiellement nuageux
Visibilité: 10 km
2014/12/22 04:00 LFBU 220400Z AUTO 14002KT 9999 NSC 01/M00 Q1033
LFBG - Cognac/Chateaubernard, France
Distance de la station: OSO 35km
Mise à jour: 22/12/2014 05:00
Broulliard, partiellement nuageux
Broulliard, partiellement nuageux
 Wind from ENE
Vent: ENE 2 km/h
Température: 0°C
Point de Rosée: 0°C
Humidité: 100%
Baromètre: 1033 hPa
Récapitulatifs: Broulliard
Nuages: partiellement nuageux
Visibilité: 1 km
2014/12/22 04:00 LFBG 220400Z AUTO 06001KT 1100 R23/1700D BR NSC 00/M00 Q1033
 
LFBL - Limoges/Bellegarde, France
Distance de la station: E 82km
Mise à jour: 22/12/2014 05:00
partiellement nuageux
partiellement nuageux
 Wind from NNE
Vent: NNE 6 km/h
Température: 0°C
Point de Rosée: 0°C
Humidité: 100%
Baromètre: 1032 hPa
Nuages: partiellement nuageux
Visibilité: 10 km
2014/12/22 04:00 LFBL 220400Z AUTO 02003KT 9999 NSC 00/M00 Q1032
LFBI - Poitiers/France
Distance de la station: N 93km
Mise à jour: 22/12/2014 05:00
Couvert
Couvert
 Wind from S
Vent: S 9 km/h
Température: 7°C
Wind Chill: 6°C
Point de Rosée: 4°C
Humidité: 81%
Baromètre: 1032 hPa
Nuages: Couvert
Visibilité: 10 km
Nuages details: Couvert 701 m
2014/12/22 04:00 LFBI 220400Z AUTO 19005KT 9999 OVC023 07/04 Q1032
 
LFBH - La Rochelle/France
Distance de la station: ONO 106km
Mise à jour: 22/12/2014 05:00
Couvert
Couvert
 Wind from S
Vent: S 9 km/h
Température: 9°C
Wind Chill: 7°C
Point de Rosée: 5°C
Humidité: 76%
Baromètre: 1033 hPa
Nuages: Couvert
Visibilité: 10 km
Nuages details: Couvert 732 m
2014/12/22 04:00 LFBH 220400Z AUTO 19005KT 9999 OVC024 09/05 Q1033
LFBE - Bergerac/France
Distance de la station: SSE 107km
Mise à jour: 22/12/2014 05:00
Freezing Fog
Freezing Fog
 Wind from ENE
Vent: ENE 4 km/h
Température: -3°C
Point de Rosée: -3°C
Humidité: 100%
Baromètre: 1033 hPa
Récapitulatifs: Freezing Fog
Visibilité: 0 km
2014/12/22 04:00 LFBE 220400Z AUTO 06002KT 0150 R28/0600N FZFG VV/// M03/M03 Q1033
 
LFBD - Bordeaux/France
Distance de la station: SSO 121km
Mise à jour: 22/12/2014 05:00

 Wind from calm
Vent: Vent calme
Visibilité: 0 km
2014/12/22 04:00 LFBD 220400Z AUTO 00000KT 0350 0150 R23/0650D R05/0900U R29/P2000 FZFG FEW003 M01/M02 Q1033
LFRI - La Roche-sur-Yon/France
Distance de la station: NO 156km
Mise à jour: 22/12/2014 05:00
Couvert
Couvert
 Wind from OSO
Vent: OSO 7 km/h
Température: 10°C
Wind Chill: 9°C
Point de Rosée: 6°C
Humidité: 76%
Baromètre: 1032 hPa
Nuages: Couvert
Visibilité: 10 km
Nuages details: Couvert 732 m
2014/12/22 04:00 LFRI 220400Z AUTO 24004KT 190V260 9999 OVC024 10/06 Q1032
 
LFBC - Cazaux/France
Distance de la station: SO 167km
Mise à jour: 22/12/2014 05:00
partiellement nuageux
partiellement nuageux
 Wind from NE
Vent: NE 6 km/h
Température: 0°C
Point de Rosée: 0°C
Humidité: 100%
Baromètre: 1033 hPa
Nuages: partiellement nuageux
Visibilité: 10 km
2014/12/22 04:00 LFBC 220400Z AUTO 04003KT 9999 NSC 00/00 Q1033
LFLX - Chateauroux/France
Distance de la station: NE 174km
Mise à jour: 22/12/2014 05:00
Couvert
Couvert
 Wind from S
Vent: S 11 km/h
Température: 6°C
Wind Chill: 4°C
Point de Rosée: 3°C
Humidité: 81%
Baromètre: 1032 hPa
Nuages: Couvert
Visibilité: 10 km
Nuages details: Couvert 732 m
2014/12/22 04:00 LFLX 220400Z AUTO 19006KT 9999 OVC024 06/03 Q1032
 
LFBA - Agen/France
Distance de la station: SSE 179km
Mise à jour: 22/12/2014 05:00
Freezing Fog
Freezing Fog
 Wind from calm
Vent: Vent calme
Température: -1°C
Point de Rosée: -2°C
Humidité: 93%
Baromètre: 1033 hPa
Récapitulatifs: Freezing Fog
Visibilité: 0 km
2014/12/22 04:00 LFBA 220400Z AUTO 00000KT 0150 R29/0550D FZFG VV/// M01/M02 Q1033